sensor_id;sensor_type;location;lat;lon;timestamp;P1;durP1;ratioP1;P2;durP2;ratioP2
22417;SDS011;11376;50.932;4.442;2022-12-13T00:01:52;55.80;;;18.67;;
22417;SDS011;11376;50.932;4.442;2022-12-13T00:04:24;54.40;;;18.00;;
22417;SDS011;11376;50.932;4.442;2022-12-13T00:06:54;47.33;;;17.87;;
22417;SDS011;11376;50.932;4.442;2022-12-13T00:09:22;53.13;;;18.13;;
22417;SDS011;11376;50.932;4.442;2022-12-13T00:11:54;57.10;;;18.70;;
22417;SDS011;11376;50.932;4.442;2022-12-13T00:14:23;59.70;;;18.17;;
22417;SDS011;11376;50.932;4.442;2022-12-13T00:16:49;50.93;;;18.00;;
22417;SDS011;11376;50.932;4.442;2022-12-13T00:19:15;50.83;;;17.23;;
22417;SDS011;11376;50.932;4.442;2022-12-13T00:21:42;48.47;;;18.03;;
22417;SDS011;11376;50.932;4.442;2022-12-13T00:24:08;52.73;;;17.83;;
22417;SDS011;11376;50.932;4.442;2022-12-13T00:26:34;48.77;;;17.63;;
22417;SDS011;11376;50.932;4.442;2022-12-13T00:29:00;53.63;;;17.60;;
22417;SDS011;11376;50.932;4.442;2022-12-13T00:31:27;48.73;;;17.17;;
22417;SDS011;11376;50.932;4.442;2022-12-13T00:33:55;46.43;;;17.83;;
22417;SDS011;11376;50.932;4.442;2022-12-13T00:36:22;51.77;;;17.87;;
22417;SDS011;11376;50.932;4.442;2022-12-13T00:38:47;52.47;;;17.57;;
22417;SDS011;11376;50.932;4.442;2022-12-13T00:41:24;47.80;;;17.90;;
22417;SDS011;11376;50.932;4.442;2022-12-13T00:43:57;47.50;;;17.83;;
22417;SDS011;11376;50.932;4.442;2022-12-13T00:46:27;52.30;;;17.17;;
22417;SDS011;11376;50.932;4.442;2022-12-13T00:48:54;47.90;;;17.07;;
22417;SDS011;11376;50.932;4.442;2022-12-13T00:51:22;49.20;;;18.10;;
22417;SDS011;11376;50.932;4.442;2022-12-13T00:53:48;53.93;;;18.20;;
22417;SDS011;11376;50.932;4.442;2022-12-13T00:56:18;52.80;;;18.47;;
22417;SDS011;11376;50.932;4.442;2022-12-13T00:58:46;57.17;;;18.13;;
22417;SDS011;11376;50.932;4.442;2022-12-13T01:01:13;52.33;;;17.60;;
22417;SDS011;11376;50.932;4.442;2022-12-13T01:03:46;48.93;;;18.67;;
22417;SDS011;11376;50.932;4.442;2022-12-13T01:06:16;39.23;;;16.70;;
22417;SDS011;11376;50.932;4.442;2022-12-13T01:08:44;49.47;;;17.10;;
22417;SDS011;11376;50.932;4.442;2022-12-13T01:11:11;45.17;;;17.33;;
22417;SDS011;11376;50.932;4.442;2022-12-13T01:13:37;53.97;;;17.23;;
22417;SDS011;11376;50.932;4.442;2022-12-13T01:16:04;41.90;;;16.60;;
22417;SDS011;11376;50.932;4.442;2022-12-13T01:18:32;55.77;;;17.20;;
22417;SDS011;11376;50.932;4.442;2022-12-13T01:23:29;47.00;;;17.27;;
22417;SDS011;11376;50.932;4.442;2022-12-13T01:26:00;53.57;;;17.67;;
22417;SDS011;11376;50.932;4.442;2022-12-13T01:28:27;50.77;;;18.37;;
22417;SDS011;11376;50.932;4.442;2022-12-13T01:30:59;48.67;;;17.67;;
22417;SDS011;11376;50.932;4.442;2022-12-13T01:33:28;46.20;;;18.13;;
22417;SDS011;11376;50.932;4.442;2022-12-13T01:35:54;48.90;;;17.33;;
22417;SDS011;11376;50.932;4.442;2022-12-13T01:38:21;50.20;;;18.53;;
22417;SDS011;11376;50.932;4.442;2022-12-13T01:40:47;47.37;;;18.03;;
22417;SDS011;11376;50.932;4.442;2022-12-13T01:43:15;49.53;;;18.67;;
22417;SDS011;11376;50.932;4.442;2022-12-13T01:45:41;45.37;;;17.73;;
22417;SDS011;11376;50.932;4.442;2022-12-13T01:48:18;50.93;;;17.77;;
22417;SDS011;11376;50.932;4.442;2022-12-13T01:50:54;51.13;;;18.30;;
22417;SDS011;11376;50.932;4.442;2022-12-13T01:53:26;54.80;;;19.30;;
22417;SDS011;11376;50.932;4.442;2022-12-13T01:56:03;50.30;;;18.50;;
22417;SDS011;11376;50.932;4.442;2022-12-13T01:58:33;48.27;;;18.13;;
22417;SDS011;11376;50.932;4.442;2022-12-13T02:01:00;51.00;;;17.93;;
22417;SDS011;11376;50.932;4.442;2022-12-13T02:03:26;57.10;;;19.57;;
22417;SDS011;11376;50.932;4.442;2022-12-13T02:06:00;55.77;;;19.80;;
22417;SDS011;11376;50.932;4.442;2022-12-13T02:08:31;55.37;;;19.97;;
22417;SDS011;11376;50.932;4.442;2022-12-13T02:10:58;53.87;;;18.90;;
22417;SDS011;11376;50.932;4.442;2022-12-13T02:13:25;60.33;;;19.20;;
22417;SDS011;11376;50.932;4.442;2022-12-13T02:21:27;49.27;;;17.77;;
22417;SDS011;11376;50.932;4.442;2022-12-13T02:24:40;52.30;;;17.40;;
22417;SDS011;11376;50.932;4.442;2022-12-13T02:27:10;48.43;;;16.90;;
22417;SDS011;11376;50.932;4.442;2022-12-13T02:35:33;57.03;;;17.73;;
22417;SDS011;11376;50.932;4.442;2022-12-13T02:40:53;43.90;;;16.37;;
22417;SDS011;11376;50.932;4.442;2022-12-13T02:43:30;42.87;;;15.37;;
22417;SDS011;11376;50.932;4.442;2022-12-13T02:46:02;44.37;;;16.53;;
22417;SDS011;11376;50.932;4.442;2022-12-13T02:48:34;44.20;;;16.53;;
22417;SDS011;11376;50.932;4.442;2022-12-13T02:51:02;44.80;;;16.23;;
22417;SDS011;11376;50.932;4.442;2022-12-13T02:53:30;45.73;;;15.77;;
22417;SDS011;11376;50.932;4.442;2022-12-13T02:55:57;39.90;;;15.53;;
22417;SDS011;11376;50.932;4.442;2022-12-13T02:58:26;46.53;;;16.70;;
22417;SDS011;11376;50.932;4.442;2022-12-13T03:04:05;39.37;;;15.87;;
22417;SDS011;11376;50.932;4.442;2022-12-13T03:06:46;46.30;;;15.67;;
22417;SDS011;11376;50.932;4.442;2022-12-13T03:09:36;44.83;;;14.97;;
22417;SDS011;11376;50.932;4.442;2022-12-13T03:17:22;46.87;;;15.73;;
22417;SDS011;11376;50.932;4.442;2022-12-13T03:19:51;47.70;;;16.33;;
22417;SDS011;11376;50.932;4.442;2022-12-13T03:22:17;44.80;;;16.40;;
22417;SDS011;11376;50.932;4.442;2022-12-13T03:24:43;41.80;;;17.13;;
22417;SDS011;11376;50.932;4.442;2022-12-13T03:27:10;47.00;;;16.03;;
22417;SDS011;11376;50.932;4.442;2022-12-13T03:29:37;49.43;;;16.27;;
22417;SDS011;11376;50.932;4.442;2022-12-13T03:32:03;43.53;;;15.57;;
22417;SDS011;11376;50.932;4.442;2022-12-13T03:34:29;45.77;;;16.20;;
22417;SDS011;11376;50.932;4.442;2022-12-13T03:36:54;44.30;;;15.30;;
22417;SDS011;11376;50.932;4.442;2022-12-13T03:39:20;43.77;;;14.90;;
22417;SDS011;11376;50.932;4.442;2022-12-13T03:41:47;44.03;;;16.23;;
22417;SDS011;11376;50.932;4.442;2022-12-13T03:44:13;52.17;;;17.77;;
22417;SDS011;11376;50.932;4.442;2022-12-13T03:46:39;44.50;;;16.03;;
22417;SDS011;11376;50.932;4.442;2022-12-13T03:49:05;42.83;;;16.00;;
22417;SDS011;11376;50.932;4.442;2022-12-13T03:51:30;43.53;;;15.00;;
22417;SDS011;11376;50.932;4.442;2022-12-13T03:53:56;40.93;;;14.47;;
22417;SDS011;11376;50.932;4.442;2022-12-13T03:56:22;40.20;;;14.53;;
22417;SDS011;11376;50.932;4.442;2022-12-13T03:58:47;46.47;;;16.13;;
22417;SDS011;11376;50.932;4.442;2022-12-13T04:01:14;39.70;;;14.30;;
22417;SDS011;11376;50.932;4.442;2022-12-13T04:03:41;40.23;;;15.23;;
22417;SDS011;11376;50.932;4.442;2022-12-13T04:06:09;37.10;;;14.83;;
22417;SDS011;11376;50.932;4.442;2022-12-13T04:08:35;41.13;;;14.90;;
22417;SDS011;11376;50.932;4.442;2022-12-13T04:11:01;40.43;;;15.03;;
22417;SDS011;11376;50.932;4.442;2022-12-13T04:13:46;46.47;;;15.53;;
22417;SDS011;11376;50.932;4.442;2022-12-13T04:16:11;40.87;;;15.43;;
22417;SDS011;11376;50.932;4.442;2022-12-13T04:18:37;42.70;;;15.43;;
22417;SDS011;11376;50.932;4.442;2022-12-13T04:21:02;41.93;;;15.97;;
22417;SDS011;11376;50.932;4.442;2022-12-13T04:23:28;42.27;;;15.40;;
22417;SDS011;11376;50.932;4.442;2022-12-13T04:25:53;38.83;;;14.03;;
22417;SDS011;11376;50.932;4.442;2022-12-13T04:28:19;39.57;;;14.83;;
22417;SDS011;11376;50.932;4.442;2022-12-13T04:30:44;39.67;;;14.27;;
22417;SDS011;11376;50.932;4.442;2022-12-13T04:33:10;44.23;;;14.67;;
22417;SDS011;11376;50.932;4.442;2022-12-13T04:35:36;40.73;;;14.70;;
22417;SDS011;11376;50.932;4.442;2022-12-13T04:38:01;39.23;;;14.67;;
22417;SDS011;11376;50.932;4.442;2022-12-13T04:40:27;34.60;;;13.53;;
22417;SDS011;11376;50.932;4.442;2022-12-13T04:42:52;41.77;;;14.43;;
22417;SDS011;11376;50.932;4.442;2022-12-13T04:45:19;38.97;;;13.77;;
22417;SDS011;11376;50.932;4.442;2022-12-13T04:47:45;39.13;;;14.90;;
22417;SDS011;11376;50.932;4.442;2022-12-13T04:50:11;41.03;;;14.40;;
22417;SDS011;11376;50.932;4.442;2022-12-13T04:52:36;39.07;;;13.07;;
22417;SDS011;11376;50.932;4.442;2022-12-13T04:55:03;38.50;;;12.50;;
22417;SDS011;11376;50.932;4.442;2022-12-13T04:57:30;36.50;;;13.77;;
22417;SDS011;11376;50.932;4.442;2022-12-13T04:59:57;38.87;;;14.00;;
22417;SDS011;11376;50.932;4.442;2022-12-13T05:02:22;40.40;;;13.60;;
22417;SDS011;11376;50.932;4.442;2022-12-13T05:04:48;38.27;;;13.17;;
22417;SDS011;11376;50.932;4.442;2022-12-13T05:07:13;37.90;;;13.50;;
22417;SDS011;11376;50.932;4.442;2022-12-13T05:09:39;34.23;;;13.43;;
22417;SDS011;11376;50.932;4.442;2022-12-13T05:12:05;35.77;;;13.03;;
22417;SDS011;11376;50.932;4.442;2022-12-13T05:14:30;37.20;;;13.43;;
22417;SDS011;11376;50.932;4.442;2022-12-13T05:16:57;32.47;;;12.23;;
22417;SDS011;11376;50.932;4.442;2022-12-13T05:19:23;35.70;;;13.00;;
22417;SDS011;11376;50.932;4.442;2022-12-13T05:21:48;31.37;;;12.77;;
22417;SDS011;11376;50.932;4.442;2022-12-13T05:24:14;34.73;;;13.37;;
22417;SDS011;11376;50.932;4.442;2022-12-13T05:26:40;33.73;;;12.93;;
22417;SDS011;11376;50.932;4.442;2022-12-13T05:29:05;38.87;;;13.93;;
22417;SDS011;11376;50.932;4.442;2022-12-13T05:31:31;42.20;;;14.17;;
22417;SDS011;11376;50.932;4.442;2022-12-13T05:33:56;33.60;;;13.30;;
22417;SDS011;11376;50.932;4.442;2022-12-13T05:36:22;37.77;;;14.40;;
22417;SDS011;11376;50.932;4.442;2022-12-13T05:38:49;35.97;;;13.27;;
22417;SDS011;11376;50.932;4.442;2022-12-13T05:41:16;31.07;;;11.97;;
22417;SDS011;11376;50.932;4.442;2022-12-13T05:43:44;36.60;;;13.63;;
22417;SDS011;11376;50.932;4.442;2022-12-13T05:46:10;36.77;;;13.40;;
22417;SDS011;11376;50.932;4.442;2022-12-13T05:48:36;34.00;;;13.27;;
22417;SDS011;11376;50.932;4.442;2022-12-13T05:51:02;36.67;;;13.40;;
22417;SDS011;11376;50.932;4.442;2022-12-13T05:53:27;35.90;;;13.20;;
22417;SDS011;11376;50.932;4.442;2022-12-13T05:55:53;35.73;;;13.13;;
22417;SDS011;11376;50.932;4.442;2022-12-13T05:58:18;41.23;;;13.40;;
22417;SDS011;11376;50.932;4.442;2022-12-13T06:00:44;40.90;;;13.93;;
22417;SDS011;11376;50.932;4.442;2022-12-13T06:03:11;41.53;;;15.07;;
22417;SDS011;11376;50.932;4.442;2022-12-13T06:05:37;35.70;;;13.57;;
22417;SDS011;11376;50.932;4.442;2022-12-13T06:08:03;36.53;;;13.80;;
22417;SDS011;11376;50.932;4.442;2022-12-13T06:10:28;43.93;;;14.27;;
22417;SDS011;11376;50.932;4.442;2022-12-13T06:12:54;42.33;;;14.23;;
22417;SDS011;11376;50.932;4.442;2022-12-13T06:15:20;35.80;;;14.17;;
22417;SDS011;11376;50.932;4.442;2022-12-13T06:17:45;33.93;;;12.47;;
22417;SDS011;11376;50.932;4.442;2022-12-13T06:20:11;37.80;;;13.47;;
22417;SDS011;11376;50.932;4.442;2022-12-13T06:22:36;39.97;;;14.40;;
22417;SDS011;11376;50.932;4.442;2022-12-13T06:25:02;44.10;;;15.70;;
22417;SDS011;11376;50.932;4.442;2022-12-13T06:27:28;43.80;;;15.70;;
22417;SDS011;11376;50.932;4.442;2022-12-13T06:29:54;50.80;;;17.10;;
22417;SDS011;11376;50.932;4.442;2022-12-13T06:32:19;41.47;;;14.93;;
22417;SDS011;11376;50.932;4.442;2022-12-13T06:34:45;40.77;;;14.17;;
22417;SDS011;11376;50.932;4.442;2022-12-13T06:37:11;38.70;;;14.57;;
22417;SDS011;11376;50.932;4.442;2022-12-13T06:39:37;40.40;;;14.50;;
22417;SDS011;11376;50.932;4.442;2022-12-13T06:42:04;34.13;;;13.13;;
22417;SDS011;11376;50.932;4.442;2022-12-13T06:44:31;40.40;;;14.90;;
22417;SDS011;11376;50.932;4.442;2022-12-13T06:46:58;35.90;;;12.57;;
22417;SDS011;11376;50.932;4.442;2022-12-13T06:49:25;33.10;;;12.70;;
22417;SDS011;11376;50.932;4.442;2022-12-13T06:51:50;33.73;;;12.03;;
22417;SDS011;11376;50.932;4.442;2022-12-13T06:54:17;32.70;;;12.07;;
22417;SDS011;11376;50.932;4.442;2022-12-13T06:56:43;32.37;;;12.37;;
22417;SDS011;11376;50.932;4.442;2022-12-13T06:59:09;35.27;;;13.47;;
22417;SDS011;11376;50.932;4.442;2022-12-13T07:01:35;31.50;;;12.73;;
22417;SDS011;11376;50.932;4.442;2022-12-13T07:04:01;31.27;;;12.57;;
22417;SDS011;11376;50.932;4.442;2022-12-13T07:06:26;34.60;;;12.37;;
22417;SDS011;11376;50.932;4.442;2022-12-13T07:08:53;34.00;;;11.40;;
22417;SDS011;11376;50.932;4.442;2022-12-13T07:11:24;30.27;;;10.90;;
22417;SDS011;11376;50.932;4.442;2022-12-13T07:13:52;37.90;;;12.87;;
22417;SDS011;11376;50.932;4.442;2022-12-13T07:16:19;33.30;;;12.50;;
22417;SDS011;11376;50.932;4.442;2022-12-13T07:18:45;33.90;;;12.70;;
22417;SDS011;11376;50.932;4.442;2022-12-13T07:21:11;31.00;;;12.00;;
22417;SDS011;11376;50.932;4.442;2022-12-13T07:23:38;36.30;;;12.13;;
22417;SDS011;11376;50.932;4.442;2022-12-13T07:26:05;27.70;;;11.30;;
22417;SDS011;11376;50.932;4.442;2022-12-13T07:28:32;28.40;;;11.67;;
22417;SDS011;11376;50.932;4.442;2022-12-13T07:30:59;30.40;;;11.60;;
22417;SDS011;11376;50.932;4.442;2022-12-13T07:33:26;29.27;;;11.47;;
22417;SDS011;11376;50.932;4.442;2022-12-13T07:36:00;33.83;;;11.70;;
22417;SDS011;11376;50.932;4.442;2022-12-13T07:38:27;27.30;;;11.43;;
22417;SDS011;11376;50.932;4.442;2022-12-13T07:40:54;30.20;;;11.33;;
22417;SDS011;11376;50.932;4.442;2022-12-13T07:43:20;27.33;;;10.37;;
22417;SDS011;11376;50.932;4.442;2022-12-13T07:45:46;32.37;;;11.23;;
22417;SDS011;11376;50.932;4.442;2022-12-13T07:48:12;29.13;;;11.37;;
22417;SDS011;11376;50.932;4.442;2022-12-13T07:50:37;30.67;;;11.27;;
22417;SDS011;11376;50.932;4.442;2022-12-13T07:53:04;29.50;;;11.87;;
22417;SDS011;11376;50.932;4.442;2022-12-13T07:55:31;32.83;;;11.70;;
22417;SDS011;11376;50.932;4.442;2022-12-13T07:58:04;33.10;;;12.10;;
22417;SDS011;11376;50.932;4.442;2022-12-13T08:00:31;33.43;;;11.83;;
22417;SDS011;11376;50.932;4.442;2022-12-13T08:02:57;32.07;;;11.63;;
22417;SDS011;11376;50.932;4.442;2022-12-13T08:05:24;33.33;;;12.57;;
22417;SDS011;11376;50.932;4.442;2022-12-13T08:07:50;36.23;;;12.47;;
22417;SDS011;11376;50.932;4.442;2022-12-13T08:10:15;33.93;;;12.57;;
22417;SDS011;11376;50.932;4.442;2022-12-13T08:12:41;32.93;;;12.27;;
22417;SDS011;11376;50.932;4.442;2022-12-13T08:15:06;28.60;;;11.17;;
22417;SDS011;11376;50.932;4.442;2022-12-13T08:17:32;32.37;;;12.43;;
22417;SDS011;11376;50.932;4.442;2022-12-13T08:19:58;32.63;;;12.57;;
22417;SDS011;11376;50.932;4.442;2022-12-13T08:22:24;36.43;;;12.17;;
22417;SDS011;11376;50.932;4.442;2022-12-13T08:24:49;32.40;;;12.20;;
22417;SDS011;11376;50.932;4.442;2022-12-13T08:27:15;33.30;;;12.73;;
22417;SDS011;11376;50.932;4.442;2022-12-13T08:29:40;28.67;;;11.93;;
22417;SDS011;11376;50.932;4.442;2022-12-13T08:32:07;35.50;;;13.03;;
22417;SDS011;11376;50.932;4.442;2022-12-13T08:34:34;29.27;;;12.17;;
22417;SDS011;11376;50.932;4.442;2022-12-13T08:37:00;32.47;;;12.80;;
22417;SDS011;11376;50.932;4.442;2022-12-13T08:39:26;30.47;;;12.80;;
22417;SDS011;11376;50.932;4.442;2022-12-13T08:41:51;37.87;;;12.87;;
22417;SDS011;11376;50.932;4.442;2022-12-13T08:44:17;30.30;;;12.93;;
22417;SDS011;11376;50.932;4.442;2022-12-13T08:46:43;31.83;;;12.93;;
22417;SDS011;11376;50.932;4.442;2022-12-13T08:49:09;32.43;;;12.83;;
22417;SDS011;11376;50.932;4.442;2022-12-13T08:51:35;32.77;;;13.53;;
22417;SDS011;11376;50.932;4.442;2022-12-13T08:54:01;34.73;;;13.63;;
22417;SDS011;11376;50.932;4.442;2022-12-13T08:56:27;37.67;;;13.80;;
22417;SDS011;11376;50.932;4.442;2022-12-13T08:58:52;33.27;;;13.30;;
22417;SDS011;11376;50.932;4.442;2022-12-13T09:01:18;28.63;;;12.90;;
22417;SDS011;11376;50.932;4.442;2022-12-13T09:03:43;34.67;;;14.03;;
22417;SDS011;11376;50.932;4.442;2022-12-13T09:06:13;35.83;;;14.20;;
22417;SDS011;11376;50.932;4.442;2022-12-13T09:08:40;33.37;;;13.60;;
22417;SDS011;11376;50.932;4.442;2022-12-13T09:11:07;33.27;;;13.37;;
22417;SDS011;11376;50.932;4.442;2022-12-13T09:13:35;33.40;;;13.63;;
22417;SDS011;11376;50.932;4.442;2022-12-13T09:18:32;29.87;;;12.80;;
22417;SDS011;11376;50.932;4.442;2022-12-13T09:20:57;28.93;;;13.40;;
22417;SDS011;11376;50.932;4.442;2022-12-13T09:23:23;30.37;;;13.33;;
22417;SDS011;11376;50.932;4.442;2022-12-13T09:25:55;27.37;;;11.73;;
22417;SDS011;11376;50.932;4.442;2022-12-13T09:28:21;28.43;;;12.53;;
22417;SDS011;11376;50.932;4.442;2022-12-13T09:30:47;28.83;;;13.03;;
22417;SDS011;11376;50.932;4.442;2022-12-13T09:33:13;26.03;;;12.20;;
22417;SDS011;11376;50.932;4.442;2022-12-13T09:35:39;26.20;;;11.60;;
22417;SDS011;11376;50.932;4.442;2022-12-13T09:38:04;22.97;;;11.73;;
22417;SDS011;11376;50.932;4.442;2022-12-13T09:40:30;24.47;;;11.23;;
22417;SDS011;11376;50.932;4.442;2022-12-13T09:42:58;24.27;;;11.20;;
22417;SDS011;11376;50.932;4.442;2022-12-13T09:45:25;25.57;;;11.13;;
22417;SDS011;11376;50.932;4.442;2022-12-13T09:47:52;27.60;;;11.10;;
22417;SDS011;11376;50.932;4.442;2022-12-13T09:50:21;21.37;;;10.90;;
22417;SDS011;11376;50.932;4.442;2022-12-13T09:52:51;22.90;;;10.93;;
22417;SDS011;11376;50.932;4.442;2022-12-13T09:57:43;27.83;;;11.80;;
22417;SDS011;11376;50.932;4.442;2022-12-13T10:00:12;21.77;;;10.77;;
22417;SDS011;11376;50.932;4.442;2022-12-13T10:02:44;23.97;;;12.00;;
22417;SDS011;11376;50.932;4.442;2022-12-13T10:07:52;23.73;;;11.83;;
22417;SDS011;11376;50.932;4.442;2022-12-13T10:10:19;19.83;;;10.93;;
22417;SDS011;11376;50.932;4.442;2022-12-13T10:12:47;19.70;;;10.97;;
22417;SDS011;11376;50.932;4.442;2022-12-13T10:15:18;22.87;;;12.23;;
22417;SDS011;11376;50.932;4.442;2022-12-13T10:17:45;23.57;;;11.90;;
22417;SDS011;11376;50.932;4.442;2022-12-13T10:20:16;24.57;;;13.17;;
22417;SDS011;11376;50.932;4.442;2022-12-13T10:22:43;22.90;;;12.90;;
22417;SDS011;11376;50.932;4.442;2022-12-13T10:25:09;22.17;;;12.97;;
22417;SDS011;11376;50.932;4.442;2022-12-13T10:27:36;24.10;;;13.60;;
22417;SDS011;11376;50.932;4.442;2022-12-13T10:35:23;19.77;;;11.63;;
22417;SDS011;11376;50.932;4.442;2022-12-13T10:37:49;20.73;;;12.43;;
22417;SDS011;11376;50.932;4.442;2022-12-13T10:43:17;20.90;;;12.40;;
22417;SDS011;11376;50.932;4.442;2022-12-13T10:48:39;19.70;;;11.80;;
22417;SDS011;11376;50.932;4.442;2022-12-13T10:51:13;19.70;;;12.18;;
22417;SDS011;11376;50.932;4.442;2022-12-13T10:53:46;19.55;;;12.23;;
22417;SDS011;11376;50.932;4.442;2022-12-13T10:56:17;20.88;;;12.40;;
22417;SDS011;11376;50.932;4.442;2022-12-13T10:58:45;19.65;;;12.38;;
22417;SDS011;11376;50.932;4.442;2022-12-13T11:03:54;19.63;;;12.48;;
22417;SDS011;11376;50.932;4.442;2022-12-13T11:06:28;16.98;;;11.68;;
22417;SDS011;11376;50.932;4.442;2022-12-13T11:09:26;20.35;;;11.85;;
22417;SDS011;11376;50.932;4.442;2022-12-13T11:11:52;22.23;;;11.93;;
22417;SDS011;11376;50.932;4.442;2022-12-13T11:14:20;22.50;;;13.38;;
22417;SDS011;11376;50.932;4.442;2022-12-13T11:16:50;18.23;;;11.88;;
22417;SDS011;11376;50.932;4.442;2022-12-13T11:19:23;21.05;;;12.43;;
22417;SDS011;11376;50.932;4.442;2022-12-13T11:21:52;21.52;;;12.70;;
22417;SDS011;11376;50.932;4.442;2022-12-13T11:24:23;19.55;;;12.35;;
22417;SDS011;11376;50.932;4.442;2022-12-13T11:26:58;19.40;;;12.30;;
22417;SDS011;11376;50.932;4.442;2022-12-13T11:35:07;18.08;;;11.35;;
22417;SDS011;11376;50.932;4.442;2022-12-13T11:40:50;20.20;;;12.25;;
22417;SDS011;11376;50.932;4.442;2022-12-13T11:45:58;20.00;;;11.50;;
22417;SDS011;11376;50.932;4.442;2022-12-13T11:51:28;18.73;;;11.90;;
22417;SDS011;11376;50.932;4.442;2022-12-13T11:54:04;19.43;;;11.70;;
22417;SDS011;11376;50.932;4.442;2022-12-13T11:56:39;18.63;;;11.73;;
22417;SDS011;11376;50.932;4.442;2022-12-13T12:09:39;21.97;;;10.60;;
22417;SDS011;11376;50.932;4.442;2022-12-13T12:12:10;22.27;;;11.07;;
22417;SDS011;11376;50.932;4.442;2022-12-13T12:14:50;18.90;;;11.20;;
22417;SDS011;11376;50.932;4.442;2022-12-13T12:17:23;21.03;;;10.90;;
22417;SDS011;11376;50.932;4.442;2022-12-13T12:19:52;21.33;;;10.80;;
22417;SDS011;11376;50.932;4.442;2022-12-13T12:30:20;19.00;;;10.77;;
22417;SDS011;11376;50.932;4.442;2022-12-13T12:33:07;20.00;;;10.33;;
22417;SDS011;11376;50.932;4.442;2022-12-13T12:43:53;18.57;;;10.70;;
22417;SDS011;11376;50.932;4.442;2022-12-13T12:54:30;19.60;;;10.57;;
22417;SDS011;11376;50.932;4.442;2022-12-13T13:00:03;21.00;;;10.10;;
22417;SDS011;11376;50.932;4.442;2022-12-13T13:02:38;21.27;;;10.50;;
22417;SDS011;11376;50.932;4.442;2022-12-13T13:05:11;21.00;;;10.47;;
22417;SDS011;11376;50.932;4.442;2022-12-13T13:08:02;20.80;;;9.50;;
22417;SDS011;11376;50.932;4.442;2022-12-13T13:10:36;20.23;;;10.00;;
22417;SDS011;11376;50.932;4.442;2022-12-13T13:13:03;24.10;;;10.67;;
22417;SDS011;11376;50.932;4.442;2022-12-13T13:17:58;19.07;;;9.67;;
22417;SDS011;11376;50.932;4.442;2022-12-13T13:20:24;19.90;;;9.53;;
22417;SDS011;11376;50.932;4.442;2022-12-13T13:22:54;20.20;;;9.23;;
22417;SDS011;11376;50.932;4.442;2022-12-13T13:31:03;18.80;;;9.03;;
22417;SDS011;11376;50.932;4.442;2022-12-13T13:36:05;19.77;;;9.87;;
22417;SDS011;11376;50.932;4.442;2022-12-13T13:38:47;22.40;;;10.33;;
22417;SDS011;11376;50.932;4.442;2022-12-13T13:41:38;20.43;;;9.30;;
22417;SDS011;11376;50.932;4.442;2022-12-13T13:47:11;23.17;;;9.73;;
22417;SDS011;11376;50.932;4.442;2022-12-13T13:49:42;23.60;;;10.33;;
22417;SDS011;11376;50.932;4.442;2022-12-13T13:52:19;25.43;;;10.23;;
22417;SDS011;11376;50.932;4.442;2022-12-13T13:54:51;19.33;;;9.90;;
22417;SDS011;11376;50.932;4.442;2022-12-13T14:08:57;22.90;;;10.13;;
22417;SDS011;11376;50.932;4.442;2022-12-13T14:11:39;22.23;;;9.73;;
22417;SDS011;11376;50.932;4.442;2022-12-13T14:17:20;21.20;;;9.57;;
22417;SDS011;11376;50.932;4.442;2022-12-13T14:29:13;23.30;;;9.87;;
22417;SDS011;11376;50.932;4.442;2022-12-13T14:34:18;21.10;;;9.50;;
22417;SDS011;11376;50.932;4.442;2022-12-13T14:36:47;22.10;;;9.63;;
22417;SDS011;11376;50.932;4.442;2022-12-13T14:39:26;22.43;;;9.20;;
22417;SDS011;11376;50.932;4.442;2022-12-13T14:41:58;23.10;;;10.40;;
22417;SDS011;11376;50.932;4.442;2022-12-13T14:44:26;23.73;;;10.70;;
22417;SDS011;11376;50.932;4.442;2022-12-13T14:46:57;26.67;;;11.57;;
22417;SDS011;11376;50.932;4.442;2022-12-13T14:49:26;27.37;;;12.13;;
22417;SDS011;11376;50.932;4.442;2022-12-13T14:51:58;32.50;;;12.57;;
22417;SDS011;11376;50.932;4.442;2022-12-13T14:54:30;27.63;;;12.00;;
22417;SDS011;11376;50.932;4.442;2022-12-13T14:57:05;28.53;;;11.80;;
22417;SDS011;11376;50.932;4.442;2022-12-13T14:59:43;27.33;;;12.90;;
22417;SDS011;11376;50.932;4.442;2022-12-13T15:02:12;30.43;;;13.07;;
22417;SDS011;11376;50.932;4.442;2022-12-13T15:04:40;31.33;;;13.63;;
22417;SDS011;11376;50.932;4.442;2022-12-13T15:07:07;31.23;;;13.43;;
22417;SDS011;11376;50.932;4.442;2022-12-13T15:09:53;30.23;;;13.97;;
22417;SDS011;11376;50.932;4.442;2022-12-13T15:12:22;29.33;;;13.17;;
22417;SDS011;11376;50.932;4.442;2022-12-13T15:14:49;31.30;;;13.80;;
22417;SDS011;11376;50.932;4.442;2022-12-13T15:17:25;30.97;;;13.07;;
22417;SDS011;11376;50.932;4.442;2022-12-13T15:19:56;28.33;;;13.47;;
22417;SDS011;11376;50.932;4.442;2022-12-13T15:22:22;29.93;;;13.60;;
22417;SDS011;11376;50.932;4.442;2022-12-13T15:24:48;34.10;;;14.73;;
22417;SDS011;11376;50.932;4.442;2022-12-13T15:27:15;32.20;;;15.37;;
22417;SDS011;11376;50.932;4.442;2022-12-13T15:29:48;39.17;;;15.17;;
22417;SDS011;11376;50.932;4.442;2022-12-13T15:32:16;37.77;;;15.90;;
22417;SDS011;11376;50.932;4.442;2022-12-13T15:34:44;43.27;;;18.70;;
22417;SDS011;11376;50.932;4.442;2022-12-13T15:39:37;44.37;;;17.70;;
22417;SDS011;11376;50.932;4.442;2022-12-13T15:42:05;42.90;;;18.37;;
22417;SDS011;11376;50.932;4.442;2022-12-13T15:44:58;43.37;;;18.77;;
22417;SDS011;11376;50.932;4.442;2022-12-13T15:47:26;45.50;;;17.93;;
22417;SDS011;11376;50.932;4.442;2022-12-13T15:49:59;41.23;;;18.63;;
22417;SDS011;11376;50.932;4.442;2022-12-13T15:52:35;42.60;;;19.07;;
22417;SDS011;11376;50.932;4.442;2022-12-13T15:57:30;49.13;;;18.87;;
22417;SDS011;11376;50.932;4.442;2022-12-13T16:00:18;48.33;;;19.23;;
22417;SDS011;11376;50.932;4.442;2022-12-13T16:03:01;48.03;;;19.83;;
22417;SDS011;11376;50.932;4.442;2022-12-13T16:05:33;41.00;;;17.53;;
22417;SDS011;11376;50.932;4.442;2022-12-13T16:08:01;52.00;;;20.00;;
22417;SDS011;11376;50.932;4.442;2022-12-13T16:10:29;45.47;;;19.20;;
22417;SDS011;11376;50.932;4.442;2022-12-13T16:13:03;47.83;;;19.50;;
22417;SDS011;11376;50.932;4.442;2022-12-13T16:15:30;49.87;;;20.37;;
22417;SDS011;11376;50.932;4.442;2022-12-13T16:20:57;45.07;;;18.50;;
22417;SDS011;11376;50.932;4.442;2022-12-13T16:23:23;46.97;;;18.93;;
22417;SDS011;11376;50.932;4.442;2022-12-13T16:25:49;45.37;;;19.00;;
22417;SDS011;11376;50.932;4.442;2022-12-13T16:28:15;45.27;;;20.53;;
22417;SDS011;11376;50.932;4.442;2022-12-13T16:33:16;45.23;;;18.63;;
22417;SDS011;11376;50.932;4.442;2022-12-13T16:35:42;48.97;;;19.53;;
22417;SDS011;11376;50.932;4.442;2022-12-13T16:38:11;43.40;;;19.67;;
22417;SDS011;11376;50.932;4.442;2022-12-13T16:40:38;43.47;;;18.60;;
22417;SDS011;11376;50.932;4.442;2022-12-13T16:43:05;49.27;;;19.97;;
22417;SDS011;11376;50.932;4.442;2022-12-13T16:45:39;45.77;;;19.97;;
22417;SDS011;11376;50.932;4.442;2022-12-13T16:48:11;44.33;;;19.53;;
22417;SDS011;11376;50.932;4.442;2022-12-13T16:50:41;46.20;;;20.00;;
22417;SDS011;11376;50.932;4.442;2022-12-13T16:53:08;45.77;;;18.97;;
22417;SDS011;11376;50.932;4.442;2022-12-13T16:55:34;39.37;;;18.50;;
22417;SDS011;11376;50.932;4.442;2022-12-13T16:58:00;44.47;;;19.90;;
22417;SDS011;11376;50.932;4.442;2022-12-13T17:00:28;42.03;;;19.50;;